sensor_id;sensor_type;location;lat;lon;timestamp;P1;durP1;ratioP1;P2;durP2;ratioP2
3121;SDS011;1571;52.524;14.104;2023-04-24T00:01:20;6.20;;;5.40;;
3121;SDS011;1571;52.524;14.104;2023-04-24T00:03:48;5.73;;;5.20;;
3121;SDS011;1571;52.524;14.104;2023-04-24T00:06:17;5.70;;;5.10;;
3121;SDS011;1571;52.524;14.104;2023-04-24T00:08:45;5.47;;;5.00;;
3121;SDS011;1571;52.524;14.104;2023-04-24T00:11:14;6.90;;;6.17;;
3121;SDS011;1571;52.524;14.104;2023-04-24T00:13:42;6.50;;;5.90;;
3121;SDS011;1571;52.524;14.104;2023-04-24T00:16:11;7.23;;;6.53;;
3121;SDS011;1571;52.524;14.104;2023-04-24T00:18:40;9.30;;;7.80;;
3121;SDS011;1571;52.524;14.104;2023-04-24T00:21:08;8.50;;;7.80;;
3121;SDS011;1571;52.524;14.104;2023-04-24T00:23:36;7.60;;;5.83;;
3121;SDS011;1571;52.524;14.104;2023-04-24T00:26:04;5.50;;;5.00;;
3121;SDS011;1571;52.524;14.104;2023-04-24T00:28:32;6.90;;;6.10;;
3121;SDS011;1571;52.524;14.104;2023-04-24T00:31:03;5.90;;;5.40;;
3121;SDS011;1571;52.524;14.104;2023-04-24T00:33:32;5.50;;;5.00;;
3121;SDS011;1571;52.524;14.104;2023-04-24T00:36:01;6.40;;;5.90;;
3121;SDS011;1571;52.524;14.104;2023-04-24T00:38:29;7.33;;;6.63;;
3121;SDS011;1571;52.524;14.104;2023-04-24T00:40:57;6.10;;;5.60;;
3121;SDS011;1571;52.524;14.104;2023-04-24T00:43:26;7.47;;;6.77;;
3121;SDS011;1571;52.524;14.104;2023-04-24T00:45:54;6.40;;;5.80;;
3121;SDS011;1571;52.524;14.104;2023-04-24T00:48:23;5.87;;;5.17;;
3121;SDS011;1571;52.524;14.104;2023-04-24T00:50:54;6.37;;;5.77;;
3121;SDS011;1571;52.524;14.104;2023-04-24T00:53:22;7.23;;;6.57;;
3121;SDS011;1571;52.524;14.104;2023-04-24T00:55:50;9.57;;;6.40;;
3121;SDS011;1571;52.524;14.104;2023-04-24T00:58:19;5.83;;;5.33;;
3121;SDS011;1571;52.524;14.104;2023-04-24T01:00:47;6.03;;;5.43;;
3121;SDS011;1571;52.524;14.104;2023-04-24T01:03:17;8.17;;;7.47;;
3121;SDS011;1571;52.524;14.104;2023-04-24T01:05:46;8.73;;;7.60;;
3121;SDS011;1571;52.524;14.104;2023-04-24T01:08:16;6.20;;;5.60;;
3121;SDS011;1571;52.524;14.104;2023-04-24T01:10:45;6.97;;;5.87;;
3121;SDS011;1571;52.524;14.104;2023-04-24T01:13:15;6.53;;;5.93;;
3121;SDS011;1571;52.524;14.104;2023-04-24T01:15:44;6.30;;;5.70;;
3121;SDS011;1571;52.524;14.104;2023-04-24T01:18:12;8.83;;;6.33;;
3121;SDS011;1571;52.524;14.104;2023-04-24T01:20:42;6.77;;;6.00;;
3121;SDS011;1571;52.524;14.104;2023-04-24T01:23:13;8.20;;;7.50;;
3121;SDS011;1571;52.524;14.104;2023-04-24T01:25:43;8.40;;;7.27;;
3121;SDS011;1571;52.524;14.104;2023-04-24T01:28:12;7.63;;;5.87;;
3121;SDS011;1571;52.524;14.104;2023-04-24T01:30:41;8.00;;;7.20;;
3121;SDS011;1571;52.524;14.104;2023-04-24T01:33:09;8.93;;;8.03;;
3121;SDS011;1571;52.524;14.104;2023-04-24T01:35:37;10.17;;;8.10;;
3121;SDS011;1571;52.524;14.104;2023-04-24T01:38:06;8.40;;;7.60;;
3121;SDS011;1571;52.524;14.104;2023-04-24T01:43:06;8.03;;;7.33;;
3121;SDS011;1571;52.524;14.104;2023-04-24T01:45:35;8.33;;;7.53;;
3121;SDS011;1571;52.524;14.104;2023-04-24T01:48:03;8.60;;;7.70;;
3121;SDS011;1571;52.524;14.104;2023-04-24T01:50:32;7.57;;;6.87;;
3121;SDS011;1571;52.524;14.104;2023-04-24T01:53:00;8.67;;;7.60;;
3121;SDS011;1571;52.524;14.104;2023-04-24T01:55:28;8.00;;;6.90;;
3121;SDS011;1571;52.524;14.104;2023-04-24T01:57:58;7.87;;;6.57;;
3121;SDS011;1571;52.524;14.104;2023-04-24T02:00:27;7.80;;;6.93;;
3121;SDS011;1571;52.524;14.104;2023-04-24T02:02:55;8.10;;;7.30;;
3121;SDS011;1571;52.524;14.104;2023-04-24T02:05:26;9.13;;;7.50;;
3121;SDS011;1571;52.524;14.104;2023-04-24T02:07:55;7.93;;;7.13;;
3121;SDS011;1571;52.524;14.104;2023-04-24T02:10:23;8.13;;;7.30;;
3121;SDS011;1571;52.524;14.104;2023-04-24T02:12:52;8.80;;;8.03;;
3121;SDS011;1571;52.524;14.104;2023-04-24T02:15:24;8.70;;;7.90;;
3121;SDS011;1571;52.524;14.104;2023-04-24T02:17:53;8.50;;;7.60;;
3121;SDS011;1571;52.524;14.104;2023-04-24T02:20:21;9.90;;;7.27;;
3121;SDS011;1571;52.524;14.104;2023-04-24T02:22:49;9.27;;;7.33;;
3121;SDS011;1571;52.524;14.104;2023-04-24T02:25:17;8.63;;;7.83;;
3121;SDS011;1571;52.524;14.104;2023-04-24T02:27:46;9.33;;;7.80;;
3121;SDS011;1571;52.524;14.104;2023-04-24T02:30:14;9.03;;;7.70;;
3121;SDS011;1571;52.524;14.104;2023-04-24T02:32:43;8.27;;;7.40;;
3121;SDS011;1571;52.524;14.104;2023-04-24T02:35:11;10.40;;;9.40;;
3121;SDS011;1571;52.524;14.104;2023-04-24T02:37:40;9.30;;;8.30;;
3121;SDS011;1571;52.524;14.104;2023-04-24T02:40:11;9.20;;;8.27;;
3121;SDS011;1571;52.524;14.104;2023-04-24T02:42:40;9.40;;;8.57;;
3121;SDS011;1571;52.524;14.104;2023-04-24T02:45:08;13.67;;;9.23;;
3121;SDS011;1571;52.524;14.104;2023-04-24T02:47:37;11.93;;;8.80;;
3121;SDS011;1571;52.524;14.104;2023-04-24T02:50:08;11.50;;;9.40;;
3121;SDS011;1571;52.524;14.104;2023-04-24T02:52:36;10.17;;;9.17;;
3121;SDS011;1571;52.524;14.104;2023-04-24T02:55:05;8.97;;;7.60;;
3121;SDS011;1571;52.524;14.104;2023-04-24T02:57:34;9.90;;;8.90;;
3121;SDS011;1571;52.524;14.104;2023-04-24T03:00:03;9.33;;;7.43;;
3121;SDS011;1571;52.524;14.104;2023-04-24T03:02:34;11.53;;;9.43;;
3121;SDS011;1571;52.524;14.104;2023-04-24T03:05:03;8.20;;;7.40;;
3121;SDS011;1571;52.524;14.104;2023-04-24T03:07:32;9.93;;;8.60;;
3121;SDS011;1571;52.524;14.104;2023-04-24T03:10:01;8.37;;;7.67;;
3121;SDS011;1571;52.524;14.104;2023-04-24T03:12:29;7.63;;;6.90;;
3121;SDS011;1571;52.524;14.104;2023-04-24T03:14:57;8.30;;;7.50;;
3121;SDS011;1571;52.524;14.104;2023-04-24T03:17:25;9.80;;;8.87;;
3121;SDS011;1571;52.524;14.104;2023-04-24T03:19:53;8.90;;;8.10;;
3121;SDS011;1571;52.524;14.104;2023-04-24T03:22:22;10.60;;;9.50;;
3121;SDS011;1571;52.524;14.104;2023-04-24T03:24:53;8.77;;;7.87;;
3121;SDS011;1571;52.524;14.104;2023-04-24T03:27:21;8.70;;;7.80;;
3121;SDS011;1571;52.524;14.104;2023-04-24T03:29:56;9.47;;;8.57;;
3121;SDS011;1571;52.524;14.104;2023-04-24T03:32:32;9.47;;;8.57;;
3121;SDS011;1571;52.524;14.104;2023-04-24T03:35:01;10.30;;;8.30;;
3121;SDS011;1571;52.524;14.104;2023-04-24T03:37:30;9.63;;;8.80;;
3121;SDS011;1571;52.524;14.104;2023-04-24T03:40:25;9.93;;;8.93;;
3121;SDS011;1571;52.524;14.104;2023-04-24T03:42:56;11.00;;;9.80;;
3121;SDS011;1571;52.524;14.104;2023-04-24T03:45:24;9.33;;;7.83;;
3121;SDS011;1571;52.524;14.104;2023-04-24T03:47:52;9.23;;;8.43;;
3121;SDS011;1571;52.524;14.104;2023-04-24T03:50:21;10.40;;;8.37;;
3121;SDS011;1571;52.524;14.104;2023-04-24T03:52:49;9.90;;;8.90;;
3121;SDS011;1571;52.524;14.104;2023-04-24T03:55:30;9.63;;;8.70;;
3121;SDS011;1571;52.524;14.104;2023-04-24T03:57:59;14.23;;;8.43;;
3121;SDS011;1571;52.524;14.104;2023-04-24T04:00:27;9.90;;;8.90;;
3121;SDS011;1571;52.524;14.104;2023-04-24T04:03:19;11.77;;;9.17;;
3121;SDS011;1571;52.524;14.104;2023-04-24T04:05:48;11.17;;;8.33;;
3121;SDS011;1571;52.524;14.104;2023-04-24T04:08:17;9.43;;;8.50;;
3121;SDS011;1571;52.524;14.104;2023-04-24T04:10:46;8.10;;;7.30;;
3121;SDS011;1571;52.524;14.104;2023-04-24T04:13:14;8.87;;;7.33;;
3121;SDS011;1571;52.524;14.104;2023-04-24T04:15:42;8.90;;;8.07;;
3121;SDS011;1571;52.524;14.104;2023-04-24T04:18:12;9.27;;;7.70;;
3121;SDS011;1571;52.524;14.104;2023-04-24T04:20:40;7.50;;;6.80;;
3121;SDS011;1571;52.524;14.104;2023-04-24T04:23:11;8.67;;;7.83;;
3121;SDS011;1571;52.524;14.104;2023-04-24T04:25:53;7.00;;;6.27;;
3121;SDS011;1571;52.524;14.104;2023-04-24T04:28:25;8.50;;;7.63;;
3121;SDS011;1571;52.524;14.104;2023-04-24T04:30:54;6.67;;;6.13;;
3121;SDS011;1571;52.524;14.104;2023-04-24T04:33:23;7.17;;;6.57;;
3121;SDS011;1571;52.524;14.104;2023-04-24T04:35:52;7.87;;;7.07;;
3121;SDS011;1571;52.524;14.104;2023-04-24T04:38:21;6.87;;;6.17;;
3121;SDS011;1571;52.524;14.104;2023-04-24T04:41:00;8.33;;;7.10;;
3121;SDS011;1571;52.524;14.104;2023-04-24T04:43:32;7.33;;;6.43;;
3121;SDS011;1571;52.524;14.104;2023-04-24T04:46:00;6.83;;;6.23;;
3121;SDS011;1571;52.524;14.104;2023-04-24T04:48:56;6.90;;;6.20;;
3121;SDS011;1571;52.524;14.104;2023-04-24T04:51:24;7.67;;;6.97;;
3121;SDS011;1571;52.524;14.104;2023-04-24T04:53:52;7.43;;;6.83;;
3121;SDS011;1571;52.524;14.104;2023-04-24T04:56:24;6.27;;;5.77;;
3121;SDS011;1571;52.524;14.104;2023-04-24T04:58:52;7.30;;;6.60;;
3121;SDS011;1571;52.524;14.104;2023-04-24T05:01:21;6.93;;;6.23;;
3121;SDS011;1571;52.524;14.104;2023-04-24T05:03:50;6.00;;;5.60;;
3121;SDS011;1571;52.524;14.104;2023-04-24T05:06:18;6.97;;;6.37;;
3121;SDS011;1571;52.524;14.104;2023-04-24T05:08:50;7.27;;;6.57;;
3121;SDS011;1571;52.524;14.104;2023-04-24T05:11:32;7.97;;;5.70;;
3121;SDS011;1571;52.524;14.104;2023-04-24T05:14:02;10.23;;;5.93;;
3121;SDS011;1571;52.524;14.104;2023-04-24T05:16:38;7.07;;;6.47;;
3121;SDS011;1571;52.524;14.104;2023-04-24T05:19:08;10.10;;;7.67;;
3121;SDS011;1571;52.524;14.104;2023-04-24T05:21:40;6.80;;;6.20;;
3121;SDS011;1571;52.524;14.104;2023-04-24T05:24:09;6.30;;;5.70;;
3121;SDS011;1571;52.524;14.104;2023-04-24T05:26:57;6.20;;;5.70;;
3121;SDS011;1571;52.524;14.104;2023-04-24T05:29:34;6.40;;;5.80;;
3121;SDS011;1571;52.524;14.104;2023-04-24T05:32:04;7.17;;;6.57;;
3121;SDS011;1571;52.524;14.104;2023-04-24T05:34:32;7.93;;;5.70;;
3121;SDS011;1571;52.524;14.104;2023-04-24T05:37:00;7.40;;;5.30;;
3121;SDS011;1571;52.524;14.104;2023-04-24T05:39:29;6.00;;;5.50;;
3121;SDS011;1571;52.524;14.104;2023-04-24T05:42:00;5.87;;;5.37;;
3121;SDS011;1571;52.524;14.104;2023-04-24T05:44:28;5.67;;;5.17;;
3121;SDS011;1571;52.524;14.104;2023-04-24T05:46:58;5.83;;;5.33;;
3121;SDS011;1571;52.524;14.104;2023-04-24T05:49:28;5.20;;;4.70;;
3121;SDS011;1571;52.524;14.104;2023-04-24T05:51:56;7.57;;;5.43;;
3121;SDS011;1571;52.524;14.104;2023-04-24T05:54:25;5.53;;;5.13;;
3121;SDS011;1571;52.524;14.104;2023-04-24T05:56:55;5.07;;;4.57;;
3121;SDS011;1571;52.524;14.104;2023-04-24T05:59:38;5.33;;;4.83;;
3121;SDS011;1571;52.524;14.104;2023-04-24T06:02:07;4.57;;;3.80;;
3121;SDS011;1571;52.524;14.104;2023-04-24T06:04:35;5.73;;;4.97;;
3121;SDS011;1571;52.524;14.104;2023-04-24T06:07:04;4.53;;;3.53;;
3121;SDS011;1571;52.524;14.104;2023-04-24T06:09:33;4.30;;;4.00;;
3121;SDS011;1571;52.524;14.104;2023-04-24T06:12:02;3.97;;;3.57;;
3121;SDS011;1571;52.524;14.104;2023-04-24T06:14:46;3.80;;;3.50;;
3121;SDS011;1571;52.524;14.104;2023-04-24T06:17:18;4.20;;;3.80;;
3121;SDS011;1571;52.524;14.104;2023-04-24T06:19:47;3.70;;;3.40;;
3121;SDS011;1571;52.524;14.104;2023-04-24T06:22:16;3.50;;;3.20;;
3121;SDS011;1571;52.524;14.104;2023-04-24T06:24:44;3.97;;;3.60;;
3121;SDS011;1571;52.524;14.104;2023-04-24T06:27:12;2.50;;;2.30;;
3121;SDS011;1571;52.524;14.104;2023-04-24T06:29:41;3.80;;;2.70;;
3121;SDS011;1571;52.524;14.104;2023-04-24T06:32:11;2.40;;;2.20;;
3121;SDS011;1571;52.524;14.104;2023-04-24T06:34:40;2.87;;;2.57;;
3121;SDS011;1571;52.524;14.104;2023-04-24T06:37:09;3.53;;;2.30;;
3121;SDS011;1571;52.524;14.104;2023-04-24T06:39:37;2.20;;;1.93;;
3121;SDS011;1571;52.524;14.104;2023-04-24T06:42:05;3.33;;;1.80;;
3121;SDS011;1571;52.524;14.104;2023-04-24T06:44:34;3.83;;;1.87;;
3121;SDS011;1571;52.524;14.104;2023-04-24T06:47:08;1.83;;;1.73;;
3121;SDS011;1571;52.524;14.104;2023-04-24T06:49:37;1.70;;;1.60;;
3121;SDS011;1571;52.524;14.104;2023-04-24T06:52:06;2.60;;;1.40;;
3121;SDS011;1571;52.524;14.104;2023-04-24T06:54:34;2.57;;;1.47;;
3121;SDS011;1571;52.524;14.104;2023-04-24T06:57:03;1.70;;;1.60;;
3121;SDS011;1571;52.524;14.104;2023-04-24T06:59:31;1.53;;;1.43;;
3121;SDS011;1571;52.524;14.104;2023-04-24T07:01:59;2.77;;;1.70;;
3121;SDS011;1571;52.524;14.104;2023-04-24T07:04:27;1.73;;;1.40;;
3121;SDS011;1571;52.524;14.104;2023-04-24T07:06:57;2.23;;;2.13;;
3121;SDS011;1571;52.524;14.104;2023-04-24T07:09:25;2.00;;;1.90;;
3121;SDS011;1571;52.524;14.104;2023-04-24T07:11:54;1.20;;;1.20;;
3121;SDS011;1571;52.524;14.104;2023-04-24T07:14:23;1.50;;;1.40;;
3121;SDS011;1571;52.524;14.104;2023-04-24T07:16:51;1.67;;;1.57;;
3121;SDS011;1571;52.524;14.104;2023-04-24T07:19:19;2.17;;;1.53;;
3121;SDS011;1571;52.524;14.104;2023-04-24T07:21:47;1.37;;;1.27;;
3121;SDS011;1571;52.524;14.104;2023-04-24T07:24:17;2.03;;;1.43;;
3121;SDS011;1571;52.524;14.104;2023-04-24T07:26:48;1.37;;;1.10;;
3121;SDS011;1571;52.524;14.104;2023-04-24T07:29:18;12.00;;;1.73;;
3121;SDS011;1571;52.524;14.104;2023-04-24T07:31:47;1.30;;;1.20;;
3121;SDS011;1571;52.524;14.104;2023-04-24T07:34:15;1.30;;;1.20;;
3121;SDS011;1571;52.524;14.104;2023-04-24T07:36:44;1.30;;;1.20;;
3121;SDS011;1571;52.524;14.104;2023-04-24T07:39:12;2.60;;;1.60;;
3121;SDS011;1571;52.524;14.104;2023-04-24T07:41:41;1.63;;;0.97;;
3121;SDS011;1571;52.524;14.104;2023-04-24T07:44:09;2.50;;;1.13;;
3121;SDS011;1571;52.524;14.104;2023-04-24T07:46:38;1.17;;;1.07;;
3121;SDS011;1571;52.524;14.104;2023-04-24T07:49:06;1.33;;;1.20;;
3121;SDS011;1571;52.524;14.104;2023-04-24T07:51:40;1.33;;;1.23;;
3121;SDS011;1571;52.524;14.104;2023-04-24T07:54:08;1.27;;;1.00;;
3121;SDS011;1571;52.524;14.104;2023-04-24T07:56:37;1.10;;;0.90;;
3121;SDS011;1571;52.524;14.104;2023-04-24T07:59:07;1.23;;;1.00;;
3121;SDS011;1571;52.524;14.104;2023-04-24T08:01:36;1.20;;;1.10;;
3121;SDS011;1571;52.524;14.104;2023-04-24T08:04:04;2.00;;;1.07;;
3121;SDS011;1571;52.524;14.104;2023-04-24T08:06:33;1.30;;;1.03;;
3121;SDS011;1571;52.524;14.104;2023-04-24T08:09:02;1.30;;;0.97;;
3121;SDS011;1571;52.524;14.104;2023-04-24T08:11:30;1.53;;;1.03;;
3121;SDS011;1571;52.524;14.104;2023-04-24T08:13:59;0.90;;;0.80;;
3121;SDS011;1571;52.524;14.104;2023-04-24T08:16:29;1.47;;;0.97;;
3121;SDS011;1571;52.524;14.104;2023-04-24T08:18:57;1.00;;;0.90;;
3121;SDS011;1571;52.524;14.104;2023-04-24T08:21:25;2.23;;;0.87;;
3121;SDS011;1571;52.524;14.104;2023-04-24T08:23:54;2.83;;;0.83;;
3121;SDS011;1571;52.524;14.104;2023-04-24T08:26:22;1.10;;;1.07;;
3121;SDS011;1571;52.524;14.104;2023-04-24T08:28:50;0.90;;;0.90;;
3121;SDS011;1571;52.524;14.104;2023-04-24T08:31:18;1.30;;;0.90;;
3121;SDS011;1571;52.524;14.104;2023-04-24T08:33:48;0.80;;;0.80;;
3121;SDS011;1571;52.524;14.104;2023-04-24T08:36:16;2.20;;;0.70;;
3121;SDS011;1571;52.524;14.104;2023-04-24T08:38:44;1.33;;;0.70;;
3121;SDS011;1571;52.524;14.104;2023-04-24T08:41:13;0.70;;;0.70;;
3121;SDS011;1571;52.524;14.104;2023-04-24T08:43:42;1.17;;;1.10;;
3121;SDS011;1571;52.524;14.104;2023-04-24T08:46:11;1.67;;;0.80;;
3121;SDS011;1571;52.524;14.104;2023-04-24T08:48:40;1.63;;;1.00;;
3121;SDS011;1571;52.524;14.104;2023-04-24T08:51:10;1.40;;;0.70;;
3121;SDS011;1571;52.524;14.104;2023-04-24T08:53:38;1.23;;;0.63;;
3121;SDS011;1571;52.524;14.104;2023-04-24T08:56:06;0.97;;;0.70;;
3121;SDS011;1571;52.524;14.104;2023-04-24T08:58:35;2.60;;;0.70;;
3121;SDS011;1571;52.524;14.104;2023-04-24T09:01:04;1.67;;;1.00;;
3121;SDS011;1571;52.524;14.104;2023-04-24T09:03:32;0.87;;;0.60;;
3121;SDS011;1571;52.524;14.104;2023-04-24T09:06:01;1.30;;;0.60;;
3121;SDS011;1571;52.524;14.104;2023-04-24T09:08:31;4.67;;;0.60;;
3121;SDS011;1571;52.524;14.104;2023-04-24T09:11:01;2.03;;;0.60;;
3121;SDS011;1571;52.524;14.104;2023-04-24T09:13:30;1.50;;;0.50;;
3121;SDS011;1571;52.524;14.104;2023-04-24T09:15:59;1.90;;;0.50;;
3121;SDS011;1571;52.524;14.104;2023-04-24T09:18:28;0.43;;;0.40;;
3121;SDS011;1571;52.524;14.104;2023-04-24T09:20:57;0.40;;;0.40;;
3121;SDS011;1571;52.524;14.104;2023-04-24T09:23:26;0.50;;;0.50;;
3121;SDS011;1571;52.524;14.104;2023-04-24T09:25:57;0.60;;;0.40;;
3121;SDS011;1571;52.524;14.104;2023-04-24T09:28:29;1.40;;;0.40;;
3121;SDS011;1571;52.524;14.104;2023-04-24T09:31:02;0.43;;;0.43;;
3121;SDS011;1571;52.524;14.104;2023-04-24T09:33:31;0.43;;;0.40;;
3121;SDS011;1571;52.524;14.104;2023-04-24T09:35:59;0.63;;;0.57;;
3121;SDS011;1571;52.524;14.104;2023-04-24T09:38:31;0.50;;;0.40;;
3121;SDS011;1571;52.524;14.104;2023-04-24T09:41:01;0.67;;;0.47;;
3121;SDS011;1571;52.524;14.104;2023-04-24T09:43:30;1.63;;;0.43;;
3121;SDS011;1571;52.524;14.104;2023-04-24T09:46:04;1.10;;;0.50;;
3121;SDS011;1571;52.524;14.104;2023-04-24T09:48:34;0.53;;;0.40;;
3121;SDS011;1571;52.524;14.104;2023-04-24T09:51:04;2.80;;;0.40;;
3121;SDS011;1571;52.524;14.104;2023-04-24T09:53:34;1.90;;;0.40;;
3121;SDS011;1571;52.524;14.104;2023-04-24T09:56:08;1.03;;;0.40;;
3121;SDS011;1571;52.524;14.104;2023-04-24T09:58:39;0.40;;;0.40;;
3121;SDS011;1571;52.524;14.104;2023-04-24T10:01:07;0.80;;;0.40;;
3121;SDS011;1571;52.524;14.104;2023-04-24T10:03:36;0.80;;;0.40;;
3121;SDS011;1571;52.524;14.104;2023-04-24T10:06:04;0.40;;;0.40;;
3121;SDS011;1571;52.524;14.104;2023-04-24T10:08:36;0.47;;;0.43;;
3121;SDS011;1571;52.524;14.104;2023-04-24T10:11:05;0.50;;;0.40;;
3121;SDS011;1571;52.524;14.104;2023-04-24T10:13:35;1.90;;;0.50;;
3121;SDS011;1571;52.524;14.104;2023-04-24T10:16:04;0.70;;;0.50;;
3121;SDS011;1571;52.524;14.104;2023-04-24T10:18:32;1.03;;;0.40;;
3121;SDS011;1571;52.524;14.104;2023-04-24T10:21:02;0.80;;;0.50;;
3121;SDS011;1571;52.524;14.104;2023-04-24T10:23:30;1.23;;;0.40;;
3121;SDS011;1571;52.524;14.104;2023-04-24T10:25:58;0.60;;;0.60;;
3121;SDS011;1571;52.524;14.104;2023-04-24T10:28:28;0.57;;;0.40;;
3121;SDS011;1571;52.524;14.104;2023-04-24T10:30:59;0.70;;;0.50;;
3121;SDS011;1571;52.524;14.104;2023-04-24T10:33:29;6.67;;;0.47;;
3121;SDS011;1571;52.524;14.104;2023-04-24T10:35:58;1.10;;;0.50;;
3121;SDS011;1571;52.524;14.104;2023-04-24T10:38:27;0.50;;;0.50;;
3121;SDS011;1571;52.524;14.104;2023-04-24T10:40:57;1.20;;;0.40;;
3121;SDS011;1571;52.524;14.104;2023-04-24T10:43:35;0.50;;;0.50;;
3121;SDS011;1571;52.524;14.104;2023-04-24T10:46:06;1.73;;;0.40;;
3121;SDS011;1571;52.524;14.104;2023-04-24T10:48:35;1.23;;;0.43;;
3121;SDS011;1571;52.524;14.104;2023-04-24T10:51:03;1.47;;;0.50;;
3121;SDS011;1571;52.524;14.104;2023-04-24T10:53:34;0.50;;;0.40;;
3121;SDS011;1571;52.524;14.104;2023-04-24T10:56:03;2.20;;;0.40;;
3121;SDS011;1571;52.524;14.104;2023-04-24T10:58:36;0.70;;;0.50;;
3121;SDS011;1571;52.524;14.104;2023-04-24T11:01:08;1.37;;;0.50;;
3121;SDS011;1571;52.524;14.104;2023-04-24T11:03:37;1.37;;;1.10;;
3121;SDS011;1571;52.524;14.104;2023-04-24T11:06:09;0.40;;;0.40;;
3121;SDS011;1571;52.524;14.104;2023-04-24T11:08:39;0.40;;;0.40;;
3121;SDS011;1571;52.524;14.104;2023-04-24T11:11:11;0.60;;;0.50;;
3121;SDS011;1571;52.524;14.104;2023-04-24T11:16:35;0.57;;;0.50;;
3121;SDS011;1571;52.524;14.104;2023-04-24T11:19:07;0.50;;;0.50;;
3121;SDS011;1571;52.524;14.104;2023-04-24T11:21:40;0.63;;;0.50;;
3121;SDS011;1571;52.524;14.104;2023-04-24T11:24:29;1.13;;;0.60;;
3121;SDS011;1571;52.524;14.104;2023-04-24T11:27:03;0.50;;;0.50;;
3121;SDS011;1571;52.524;14.104;2023-04-24T11:29:38;0.60;;;0.50;;
3121;SDS011;1571;52.524;14.104;2023-04-24T11:32:16;0.53;;;0.53;;
3121;SDS011;1571;52.524;14.104;2023-04-24T11:34:49;0.60;;;0.60;;
3121;SDS011;1571;52.524;14.104;2023-04-24T11:37:19;0.60;;;0.60;;
3121;SDS011;1571;52.524;14.104;2023-04-24T11:39:49;2.83;;;1.30;;
3121;SDS011;1571;52.524;14.104;2023-04-24T11:42:18;0.60;;;0.60;;
3121;SDS011;1571;52.524;14.104;2023-04-24T11:44:49;3.23;;;0.80;;
3121;SDS011;1571;52.524;14.104;2023-04-24T11:47:18;2.03;;;0.80;;
3121;SDS011;1571;52.524;14.104;2023-04-24T11:49:50;3.27;;;0.80;;
3121;SDS011;1571;52.524;14.104;2023-04-24T11:52:18;0.90;;;0.90;;
3121;SDS011;1571;52.524;14.104;2023-04-24T11:54:47;0.90;;;0.90;;
3121;SDS011;1571;52.524;14.104;2023-04-24T11:57:19;1.23;;;0.80;;
3121;SDS011;1571;52.524;14.104;2023-04-24T11:59:49;1.00;;;1.00;;
3121;SDS011;1571;52.524;14.104;2023-04-24T12:02:22;0.80;;;0.80;;
3121;SDS011;1571;52.524;14.104;2023-04-24T12:04:51;1.53;;;0.97;;
3121;SDS011;1571;52.524;14.104;2023-04-24T12:07:21;2.90;;;1.20;;
3121;SDS011;1571;52.524;14.104;2023-04-24T12:09:54;0.90;;;0.90;;
3121;SDS011;1571;52.524;14.104;2023-04-24T12:12:25;1.50;;;1.20;;
3121;SDS011;1571;52.524;14.104;2023-04-24T12:14:55;2.00;;;1.10;;
3121;SDS011;1571;52.524;14.104;2023-04-24T12:17:28;1.13;;;0.83;;
3121;SDS011;1571;52.524;14.104;2023-04-24T12:19:58;1.20;;;1.07;;
3121;SDS011;1571;52.524;14.104;2023-04-24T12:22:42;0.80;;;0.80;;
3121;SDS011;1571;52.524;14.104;2023-04-24T12:25:12;1.83;;;0.80;;
3121;SDS011;1571;52.524;14.104;2023-04-24T12:27:41;0.70;;;0.70;;
3121;SDS011;1571;52.524;14.104;2023-04-24T12:30:11;0.63;;;0.60;;
3121;SDS011;1571;52.524;14.104;2023-04-24T12:32:42;0.70;;;0.70;;
3121;SDS011;1571;52.524;14.104;2023-04-24T12:35:11;0.63;;;0.60;;
3121;SDS011;1571;52.524;14.104;2023-04-24T12:37:41;0.50;;;0.50;;
3121;SDS011;1571;52.524;14.104;2023-04-24T12:40:13;0.90;;;0.57;;
3121;SDS011;1571;52.524;14.104;2023-04-24T12:42:42;1.10;;;0.50;;
3121;SDS011;1571;52.524;14.104;2023-04-24T12:45:13;0.80;;;0.57;;
3121;SDS011;1571;52.524;14.104;2023-04-24T12:47:43;2.07;;;0.50;;
3121;SDS011;1571;52.524;14.104;2023-04-24T12:50:14;1.47;;;0.90;;
3121;SDS011;1571;52.524;14.104;2023-04-24T12:52:43;0.97;;;0.50;;
3121;SDS011;1571;52.524;14.104;2023-04-24T12:55:12;1.43;;;0.63;;
3121;SDS011;1571;52.524;14.104;2023-04-24T12:57:40;0.77;;;0.60;;
3121;SDS011;1571;52.524;14.104;2023-04-24T13:00:09;0.50;;;0.50;;
3121;SDS011;1571;52.524;14.104;2023-04-24T13:02:37;0.50;;;0.50;;
3121;SDS011;1571;52.524;14.104;2023-04-24T13:05:08;3.90;;;0.60;;
3121;SDS011;1571;52.524;14.104;2023-04-24T13:07:38;1.57;;;0.80;;
3121;SDS011;1571;52.524;14.104;2023-04-24T13:10:07;1.63;;;0.60;;
3121;SDS011;1571;52.524;14.104;2023-04-24T13:12:36;1.20;;;0.50;;
3121;SDS011;1571;52.524;14.104;2023-04-24T13:15:06;1.10;;;0.50;;
3121;SDS011;1571;52.524;14.104;2023-04-24T13:17:34;0.70;;;0.60;;
3121;SDS011;1571;52.524;14.104;2023-04-24T13:20:03;1.33;;;0.70;;
3121;SDS011;1571;52.524;14.104;2023-04-24T13:22:33;3.37;;;0.50;;
3121;SDS011;1571;52.524;14.104;2023-04-24T13:25:01;2.33;;;0.50;;
3121;SDS011;1571;52.524;14.104;2023-04-24T13:27:30;0.53;;;0.53;;
3121;SDS011;1571;52.524;14.104;2023-04-24T13:29:58;0.70;;;0.60;;
3121;SDS011;1571;52.524;14.104;2023-04-24T13:32:27;1.63;;;0.60;;
3121;SDS011;1571;52.524;14.104;2023-04-24T13:34:55;1.33;;;0.60;;
3121;SDS011;1571;52.524;14.104;2023-04-24T13:37:24;0.60;;;0.50;;
3121;SDS011;1571;52.524;14.104;2023-04-24T13:39:54;3.40;;;0.50;;
3121;SDS011;1571;52.524;14.104;2023-04-24T13:42:22;0.77;;;0.50;;
3121;SDS011;1571;52.524;14.104;2023-04-24T13:44:50;0.50;;;0.50;;
3121;SDS011;1571;52.524;14.104;2023-04-24T13:47:20;0.77;;;0.50;;
3121;SDS011;1571;52.524;14.104;2023-04-24T13:49:49;0.70;;;0.67;;
3121;SDS011;1571;52.524;14.104;2023-04-24T13:52:17;0.50;;;0.50;;
3121;SDS011;1571;52.524;14.104;2023-04-24T13:54:45;0.43;;;0.43;;
3121;SDS011;1571;52.524;14.104;2023-04-24T13:57:14;2.20;;;0.40;;
3121;SDS011;1571;52.524;14.104;2023-04-24T13:59:43;0.63;;;0.50;;
3121;SDS011;1571;52.524;14.104;2023-04-24T14:02:12;5.17;;;0.50;;
3121;SDS011;1571;52.524;14.104;2023-04-24T14:04:40;0.77;;;0.70;;
3121;SDS011;1571;52.524;14.104;2023-04-24T14:07:09;0.50;;;0.50;;
3121;SDS011;1571;52.524;14.104;2023-04-24T14:09:37;0.50;;;0.50;;
3121;SDS011;1571;52.524;14.104;2023-04-24T14:12:05;2.63;;;0.50;;
3121;SDS011;1571;52.524;14.104;2023-04-24T14:14:35;1.80;;;0.60;;
3121;SDS011;1571;52.524;14.104;2023-04-24T14:17:04;2.30;;;0.63;;
3121;SDS011;1571;52.524;14.104;2023-04-24T14:19:32;0.60;;;0.60;;
3121;SDS011;1571;52.524;14.104;2023-04-24T14:22:00;0.60;;;0.60;;
3121;SDS011;1571;52.524;14.104;2023-04-24T14:24:29;1.27;;;0.70;;
3121;SDS011;1571;52.524;14.104;2023-04-24T14:26:57;4.20;;;1.10;;
3121;SDS011;1571;52.524;14.104;2023-04-24T14:29:25;0.60;;;0.50;;
3121;SDS011;1571;52.524;14.104;2023-04-24T14:31:55;1.53;;;0.50;;
3121;SDS011;1571;52.524;14.104;2023-04-24T14:34:23;0.60;;;0.60;;
3121;SDS011;1571;52.524;14.104;2023-04-24T14:36:52;1.37;;;0.70;;
3121;SDS011;1571;52.524;14.104;2023-04-24T14:39:20;0.73;;;0.60;;
3121;SDS011;1571;52.524;14.104;2023-04-24T14:41:48;1.43;;;0.60;;
3121;SDS011;1571;52.524;14.104;2023-04-24T14:44:17;1.73;;;0.70;;
3121;SDS011;1571;52.524;14.104;2023-04-24T14:46:45;2.30;;;0.60;;
3121;SDS011;1571;52.524;14.104;2023-04-24T14:49:14;1.13;;;0.60;;
3121;SDS011;1571;52.524;14.104;2023-04-24T14:51:43;0.70;;;0.70;;
3121;SDS011;1571;52.524;14.104;2023-04-24T14:54:11;2.20;;;0.80;;
3121;SDS011;1571;52.524;14.104;2023-04-24T14:56:39;0.60;;;0.60;;
3121;SDS011;1571;52.524;14.104;2023-04-24T14:59:07;0.90;;;0.50;;
3121;SDS011;1571;52.524;14.104;2023-04-24T15:01:36;0.83;;;0.60;;
3121;SDS011;1571;52.524;14.104;2023-04-24T15:04:04;4.73;;;0.90;;
3121;SDS011;1571;52.524;14.104;2023-04-24T15:06:34;1.57;;;0.60;;
3121;SDS011;1571;52.524;14.104;2023-04-24T15:09:03;1.00;;;0.50;;
3121;SDS011;1571;52.524;14.104;2023-04-24T15:11:31;1.73;;;0.50;;
3121;SDS011;1571;52.524;14.104;2023-04-24T15:14:00;1.93;;;0.70;;
3121;SDS011;1571;52.524;14.104;2023-04-24T15:16:28;2.00;;;1.03;;
3121;SDS011;1571;52.524;14.104;2023-04-24T15:18:56;0.77;;;0.60;;
3121;SDS011;1571;52.524;14.104;2023-04-24T15:21:24;1.07;;;0.53;;